sensor_id;sensor_type;location;lat;lon;timestamp;temperature;humidity
4487;DHT22;2256;48.740;9.106;2024-02-26T00:00:19;6.90;99.90
4487;DHT22;2256;48.740;9.106;2024-02-26T00:02:46;6.90;99.90
4487;DHT22;2256;48.740;9.106;2024-02-26T00:05:13;6.90;99.90
4487;DHT22;2256;48.740;9.106;2024-02-26T00:07:39;7.00;99.90
4487;DHT22;2256;48.740;9.106;2024-02-26T00:10:07;7.00;99.90
4487;DHT22;2256;48.740;9.106;2024-02-26T00:12:34;6.90;99.90
4487;DHT22;2256;48.740;9.106;2024-02-26T00:15:03;6.90;99.90
4487;DHT22;2256;48.740;9.106;2024-02-26T00:17:29;6.80;99.90
4487;DHT22;2256;48.740;9.106;2024-02-26T00:19:56;6.80;99.90
4487;DHT22;2256;48.740;9.106;2024-02-26T00:22:23;6.80;99.90
4487;DHT22;2256;48.740;9.106;2024-02-26T00:24:50;6.70;99.90
4487;DHT22;2256;48.740;9.106;2024-02-26T00:27:16;6.80;99.90
4487;DHT22;2256;48.740;9.106;2024-02-26T00:29:43;6.90;99.90
4487;DHT22;2256;48.740;9.106;2024-02-26T00:32:11;6.90;99.90
4487;DHT22;2256;48.740;9.106;2024-02-26T00:34:38;7.00;99.90
4487;DHT22;2256;48.740;9.106;2024-02-26T00:37:05;7.00;99.90
4487;DHT22;2256;48.740;9.106;2024-02-26T00:39:31;7.00;99.90
4487;DHT22;2256;48.740;9.106;2024-02-26T00:41:58;6.90;99.90
4487;DHT22;2256;48.740;9.106;2024-02-26T00:44:25;6.80;99.90
4487;DHT22;2256;48.740;9.106;2024-02-26T00:46:52;6.90;99.90
4487;DHT22;2256;48.740;9.106;2024-02-26T00:49:20;6.90;99.90
4487;DHT22;2256;48.740;9.106;2024-02-26T00:51:47;7.00;99.90
4487;DHT22;2256;48.740;9.106;2024-02-26T00:54:13;6.90;99.90
4487;DHT22;2256;48.740;9.106;2024-02-26T00:56:40;6.90;99.90
4487;DHT22;2256;48.740;9.106;2024-02-26T00:59:07;6.90;99.90
4487;DHT22;2256;48.740;9.106;2024-02-26T01:01:33;6.90;99.90
4487;DHT22;2256;48.740;9.106;2024-02-26T01:04:00;7.00;99.90
4487;DHT22;2256;48.740;9.106;2024-02-26T01:06:30;7.00;99.90
4487;DHT22;2256;48.740;9.106;2024-02-26T01:08:56;7.00;99.90
4487;DHT22;2256;48.740;9.106;2024-02-26T01:11:24;6.90;99.90
4487;DHT22;2256;48.740;9.106;2024-02-26T01:13:51;6.80;99.90
4487;DHT22;2256;48.740;9.106;2024-02-26T01:16:21;6.80;99.90
4487;DHT22;2256;48.740;9.106;2024-02-26T01:18:48;6.90;99.90
4487;DHT22;2256;48.740;9.106;2024-02-26T01:21:15;6.90;99.90
4487;DHT22;2256;48.740;9.106;2024-02-26T01:23:43;6.70;99.90
4487;DHT22;2256;48.740;9.106;2024-02-26T01:26:10;6.70;99.90
4487;DHT22;2256;48.740;9.106;2024-02-26T01:28:37;6.60;99.90
4487;DHT22;2256;48.740;9.106;2024-02-26T01:31:03;6.60;99.90
4487;DHT22;2256;48.740;9.106;2024-02-26T01:33:31;6.60;99.90
4487;DHT22;2256;48.740;9.106;2024-02-26T01:35:58;6.80;99.90
4487;DHT22;2256;48.740;9.106;2024-02-26T01:38:26;6.70;99.90
4487;DHT22;2256;48.740;9.106;2024-02-26T01:40:54;6.80;99.90
4487;DHT22;2256;48.740;9.106;2024-02-26T01:43:21;6.80;99.90
4487;DHT22;2256;48.740;9.106;2024-02-26T01:45:47;6.80;99.90
4487;DHT22;2256;48.740;9.106;2024-02-26T01:48:14;6.80;99.90
4487;DHT22;2256;48.740;9.106;2024-02-26T01:50:41;6.70;99.90
4487;DHT22;2256;48.740;9.106;2024-02-26T01:53:08;6.70;99.90
4487;DHT22;2256;48.740;9.106;2024-02-26T01:55:35;6.80;99.90
4487;DHT22;2256;48.740;9.106;2024-02-26T01:58:05;6.90;99.90
4487;DHT22;2256;48.740;9.106;2024-02-26T02:00:32;6.90;99.90
4487;DHT22;2256;48.740;9.106;2024-02-26T02:02:59;7.00;99.90
4487;DHT22;2256;48.740;9.106;2024-02-26T02:05:26;7.00;99.90
4487;DHT22;2256;48.740;9.106;2024-02-26T02:07:53;7.00;99.90
4487;DHT22;2256;48.740;9.106;2024-02-26T02:10:20;7.10;99.90
4487;DHT22;2256;48.740;9.106;2024-02-26T02:12:51;7.00;99.90
4487;DHT22;2256;48.740;9.106;2024-02-26T02:15:19;7.00;99.90
4487;DHT22;2256;48.740;9.106;2024-02-26T02:17:47;7.00;99.70
4487;DHT22;2256;48.740;9.106;2024-02-26T02:20:16;7.00;99.70
4487;DHT22;2256;48.740;9.106;2024-02-26T02:22:45;7.00;99.60
4487;DHT22;2256;48.740;9.106;2024-02-26T02:25:12;7.00;99.80
4487;DHT22;2256;48.740;9.106;2024-02-26T02:27:39;7.10;99.90
4487;DHT22;2256;48.740;9.106;2024-02-26T02:30:09;7.10;99.90
4487;DHT22;2256;48.740;9.106;2024-02-26T02:32:37;7.20;99.90
4487;DHT22;2256;48.740;9.106;2024-02-26T02:35:05;7.40;99.90
4487;DHT22;2256;48.740;9.106;2024-02-26T02:37:32;7.30;99.90
4487;DHT22;2256;48.740;9.106;2024-02-26T02:40:00;7.20;99.90
4487;DHT22;2256;48.740;9.106;2024-02-26T02:42:27;7.20;99.90
4487;DHT22;2256;48.740;9.106;2024-02-26T02:44:54;7.10;99.90
4487;DHT22;2256;48.740;9.106;2024-02-26T02:47:20;7.20;99.90
4487;DHT22;2256;48.740;9.106;2024-02-26T02:49:47;7.30;99.90
4487;DHT22;2256;48.740;9.106;2024-02-26T02:52:14;7.40;99.90
4487;DHT22;2256;48.740;9.106;2024-02-26T02:54:41;7.50;99.90
4487;DHT22;2256;48.740;9.106;2024-02-26T02:57:09;7.60;99.90
4487;DHT22;2256;48.740;9.106;2024-02-26T02:59:37;7.60;99.90
4487;DHT22;2256;48.740;9.106;2024-02-26T03:02:04;7.60;99.90
4487;DHT22;2256;48.740;9.106;2024-02-26T03:04:32;7.60;99.90
4487;DHT22;2256;48.740;9.106;2024-02-26T03:06:58;7.60;99.90
4487;DHT22;2256;48.740;9.106;2024-02-26T03:09:25;7.60;99.90
4487;DHT22;2256;48.740;9.106;2024-02-26T03:11:52;7.50;99.90
4487;DHT22;2256;48.740;9.106;2024-02-26T03:14:20;7.60;99.90
4487;DHT22;2256;48.740;9.106;2024-02-26T03:16:47;7.70;99.90
4487;DHT22;2256;48.740;9.106;2024-02-26T03:19:14;7.80;99.90
4487;DHT22;2256;48.740;9.106;2024-02-26T03:21:41;7.90;99.90
4487;DHT22;2256;48.740;9.106;2024-02-26T03:24:08;7.90;99.90
4487;DHT22;2256;48.740;9.106;2024-02-26T03:26:36;7.90;99.90
4487;DHT22;2256;48.740;9.106;2024-02-26T03:29:02;8.00;99.90
4487;DHT22;2256;48.740;9.106;2024-02-26T03:31:31;8.10;99.90
4487;DHT22;2256;48.740;9.106;2024-02-26T03:33:57;8.00;99.90
4487;DHT22;2256;48.740;9.106;2024-02-26T03:36:24;8.00;99.90
4487;DHT22;2256;48.740;9.106;2024-02-26T03:38:51;8.00;99.90
4487;DHT22;2256;48.740;9.106;2024-02-26T03:41:18;7.90;99.90
4487;DHT22;2256;48.740;9.106;2024-02-26T03:43:44;7.80;99.90
4487;DHT22;2256;48.740;9.106;2024-02-26T03:46:11;7.70;99.90
4487;DHT22;2256;48.740;9.106;2024-02-26T03:48:40;7.80;99.90
4487;DHT22;2256;48.740;9.106;2024-02-26T03:51:08;7.80;99.90
4487;DHT22;2256;48.740;9.106;2024-02-26T03:53:35;7.80;99.90
4487;DHT22;2256;48.740;9.106;2024-02-26T03:56:03;7.80;99.90
4487;DHT22;2256;48.740;9.106;2024-02-26T03:58:30;7.90;99.90
4487;DHT22;2256;48.740;9.106;2024-02-26T04:00:57;7.80;99.90
4487;DHT22;2256;48.740;9.106;2024-02-26T04:03:24;7.80;99.90
4487;DHT22;2256;48.740;9.106;2024-02-26T04:05:52;7.80;99.90
4487;DHT22;2256;48.740;9.106;2024-02-26T04:08:19;7.90;99.90
4487;DHT22;2256;48.740;9.106;2024-02-26T04:10:48;8.00;99.90
4487;DHT22;2256;48.740;9.106;2024-02-26T04:13:15;7.80;99.90
4487;DHT22;2256;48.740;9.106;2024-02-26T04:15:42;7.70;99.90
4487;DHT22;2256;48.740;9.106;2024-02-26T04:18:09;7.80;99.90
4487;DHT22;2256;48.740;9.106;2024-02-26T04:20:35;7.70;99.90
4487;DHT22;2256;48.740;9.106;2024-02-26T04:23:04;7.50;99.90
4487;DHT22;2256;48.740;9.106;2024-02-26T04:25:31;7.40;99.90
4487;DHT22;2256;48.740;9.106;2024-02-26T04:27:57;7.30;99.90
4487;DHT22;2256;48.740;9.106;2024-02-26T04:30:25;7.10;99.90
4487;DHT22;2256;48.740;9.106;2024-02-26T04:32:52;7.20;99.90
4487;DHT22;2256;48.740;9.106;2024-02-26T04:35:18;7.10;99.90
4487;DHT22;2256;48.740;9.106;2024-02-26T04:37:46;6.90;99.90
4487;DHT22;2256;48.740;9.106;2024-02-26T04:40:14;6.90;99.90
4487;DHT22;2256;48.740;9.106;2024-02-26T04:42:41;6.90;99.90
4487;DHT22;2256;48.740;9.106;2024-02-26T04:45:08;7.00;99.90
4487;DHT22;2256;48.740;9.106;2024-02-26T04:47:35;7.00;99.90
4487;DHT22;2256;48.740;9.106;2024-02-26T04:50:02;7.10;99.90
4487;DHT22;2256;48.740;9.106;2024-02-26T04:52:29;7.10;99.90
4487;DHT22;2256;48.740;9.106;2024-02-26T04:54:56;7.10;99.90
4487;DHT22;2256;48.740;9.106;2024-02-26T04:57:26;7.00;99.90
4487;DHT22;2256;48.740;9.106;2024-02-26T04:59:53;7.10;99.90
4487;DHT22;2256;48.740;9.106;2024-02-26T05:02:20;7.10;99.90
4487;DHT22;2256;48.740;9.106;2024-02-26T05:04:47;7.00;99.90
4487;DHT22;2256;48.740;9.106;2024-02-26T05:07:13;7.00;99.90
4487;DHT22;2256;48.740;9.106;2024-02-26T05:09:40;6.90;99.90
4487;DHT22;2256;48.740;9.106;2024-02-26T05:12:09;6.70;99.90
4487;DHT22;2256;48.740;9.106;2024-02-26T05:14:37;6.70;99.90
4487;DHT22;2256;48.740;9.106;2024-02-26T05:17:04;6.70;99.90
4487;DHT22;2256;48.740;9.106;2024-02-26T05:19:31;6.70;99.90
4487;DHT22;2256;48.740;9.106;2024-02-26T05:21:58;6.80;99.90
4487;DHT22;2256;48.740;9.106;2024-02-26T05:24:24;6.90;99.90
4487;DHT22;2256;48.740;9.106;2024-02-26T05:26:51;6.80;99.90
4487;DHT22;2256;48.740;9.106;2024-02-26T05:29:18;6.80;99.90
4487;DHT22;2256;48.740;9.106;2024-02-26T05:31:46;6.80;99.90
4487;DHT22;2256;48.740;9.106;2024-02-26T05:34:13;6.80;99.90
4487;DHT22;2256;48.740;9.106;2024-02-26T05:36:40;6.80;99.90
4487;DHT22;2256;48.740;9.106;2024-02-26T05:39:06;6.80;99.90
4487;DHT22;2256;48.740;9.106;2024-02-26T05:41:33;6.90;99.90
4487;DHT22;2256;48.740;9.106;2024-02-26T05:44:00;6.90;99.90
4487;DHT22;2256;48.740;9.106;2024-02-26T05:46:27;6.80;99.90
4487;DHT22;2256;48.740;9.106;2024-02-26T05:48:55;6.70;99.90
4487;DHT22;2256;48.740;9.106;2024-02-26T05:51:22;6.70;99.90
4487;DHT22;2256;48.740;9.106;2024-02-26T05:53:49;6.70;99.90
4487;DHT22;2256;48.740;9.106;2024-02-26T05:56:20;6.60;99.90
4487;DHT22;2256;48.740;9.106;2024-02-26T05:58:47;6.50;99.90
4487;DHT22;2256;48.740;9.106;2024-02-26T06:01:15;6.70;99.90
4487;DHT22;2256;48.740;9.106;2024-02-26T06:03:42;6.50;99.90
4487;DHT22;2256;48.740;9.106;2024-02-26T06:06:10;6.50;99.90
4487;DHT22;2256;48.740;9.106;2024-02-26T06:08:37;6.40;99.90
4487;DHT22;2256;48.740;9.106;2024-02-26T06:11:05;6.40;99.90
4487;DHT22;2256;48.740;9.106;2024-02-26T06:13:33;6.20;99.90
4487;DHT22;2256;48.740;9.106;2024-02-26T06:15:59;6.20;99.90
4487;DHT22;2256;48.740;9.106;2024-02-26T06:18:26;6.20;99.90
4487;DHT22;2256;48.740;9.106;2024-02-26T06:20:53;6.20;99.90
4487;DHT22;2256;48.740;9.106;2024-02-26T06:23:21;6.10;99.90
4487;DHT22;2256;48.740;9.106;2024-02-26T06:25:48;6.20;99.90
4487;DHT22;2256;48.740;9.106;2024-02-26T06:28:14;6.20;99.90
4487;DHT22;2256;48.740;9.106;2024-02-26T06:30:41;6.20;99.90
4487;DHT22;2256;48.740;9.106;2024-02-26T06:33:08;6.20;99.90
4487;DHT22;2256;48.740;9.106;2024-02-26T06:35:34;6.30;99.90
4487;DHT22;2256;48.740;9.106;2024-02-26T06:38:01;6.20;99.90
4487;DHT22;2256;48.740;9.106;2024-02-26T06:40:29;6.20;99.90
4487;DHT22;2256;48.740;9.106;2024-02-26T06:42:56;6.30;99.90
4487;DHT22;2256;48.740;9.106;2024-02-26T06:45:23;6.30;99.90
4487;DHT22;2256;48.740;9.106;2024-02-26T06:47:49;6.30;99.90
4487;DHT22;2256;48.740;9.106;2024-02-26T06:50:16;6.40;99.90
4487;DHT22;2256;48.740;9.106;2024-02-26T06:52:44;6.60;99.90
4487;DHT22;2256;48.740;9.106;2024-02-26T06:55:11;6.80;99.90
4487;DHT22;2256;48.740;9.106;2024-02-26T06:57:40;7.00;99.90
4487;DHT22;2256;48.740;9.106;2024-02-26T07:00:08;7.20;99.90
4487;DHT22;2256;48.740;9.106;2024-02-26T07:02:39;7.20;99.90
4487;DHT22;2256;48.740;9.106;2024-02-26T07:05:07;7.40;99.90
4487;DHT22;2256;48.740;9.106;2024-02-26T07:07:34;7.40;99.90
4487;DHT22;2256;48.740;9.106;2024-02-26T07:10:00;7.40;99.90
4487;DHT22;2256;48.740;9.106;2024-02-26T07:12:29;7.40;99.90
4487;DHT22;2256;48.740;9.106;2024-02-26T07:14:57;7.40;99.90
4487;DHT22;2256;48.740;9.106;2024-02-26T07:17:24;7.50;99.90
4487;DHT22;2256;48.740;9.106;2024-02-26T07:19:51;7.50;99.90
4487;DHT22;2256;48.740;9.106;2024-02-26T07:22:18;7.50;99.90
4487;DHT22;2256;48.740;9.106;2024-02-26T07:24:45;7.70;99.90
4487;DHT22;2256;48.740;9.106;2024-02-26T07:27:12;7.70;99.90
4487;DHT22;2256;48.740;9.106;2024-02-26T07:29:38;7.80;99.90
4487;DHT22;2256;48.740;9.106;2024-02-26T07:32:07;7.80;99.90
4487;DHT22;2256;48.740;9.106;2024-02-26T07:34:33;7.80;99.90
4487;DHT22;2256;48.740;9.106;2024-02-26T07:37:00;7.90;99.90
4487;DHT22;2256;48.740;9.106;2024-02-26T07:39:28;7.90;99.90
4487;DHT22;2256;48.740;9.106;2024-02-26T07:41:55;7.90;99.90
4487;DHT22;2256;48.740;9.106;2024-02-26T07:44:22;8.00;99.90
4487;DHT22;2256;48.740;9.106;2024-02-26T07:46:48;8.00;99.90
4487;DHT22;2256;48.740;9.106;2024-02-26T07:49:17;8.00;99.90
4487;DHT22;2256;48.740;9.106;2024-02-26T07:51:44;8.00;99.90
4487;DHT22;2256;48.740;9.106;2024-02-26T07:54:11;8.00;99.90
4487;DHT22;2256;48.740;9.106;2024-02-26T07:56:37;8.10;99.90
4487;DHT22;2256;48.740;9.106;2024-02-26T07:59:04;8.10;99.90
4487;DHT22;2256;48.740;9.106;2024-02-26T08:01:31;8.00;99.90
4487;DHT22;2256;48.740;9.106;2024-02-26T08:03:59;8.10;99.90
4487;DHT22;2256;48.740;9.106;2024-02-26T08:06:27;8.10;99.90
4487;DHT22;2256;48.740;9.106;2024-02-26T08:08:54;8.10;99.90
4487;DHT22;2256;48.740;9.106;2024-02-26T08:11:20;8.10;99.90
4487;DHT22;2256;48.740;9.106;2024-02-26T08:13:47;8.20;99.90
4487;DHT22;2256;48.740;9.106;2024-02-26T08:16:14;8.20;99.90
4487;DHT22;2256;48.740;9.106;2024-02-26T08:18:41;8.30;99.90
4487;DHT22;2256;48.740;9.106;2024-02-26T08:21:08;8.30;99.90
4487;DHT22;2256;48.740;9.106;2024-02-26T08:23:36;8.50;99.90
4487;DHT22;2256;48.740;9.106;2024-02-26T08:26:03;8.50;99.90
4487;DHT22;2256;48.740;9.106;2024-02-26T08:28:32;8.40;99.90
4487;DHT22;2256;48.740;9.106;2024-02-26T08:30:59;8.30;99.90
4487;DHT22;2256;48.740;9.106;2024-02-26T08:33:26;8.30;99.90
4487;DHT22;2256;48.740;9.106;2024-02-26T08:35:52;8.30;99.90
4487;DHT22;2256;48.740;9.106;2024-02-26T08:38:19;8.30;99.90
4487;DHT22;2256;48.740;9.106;2024-02-26T08:40:48;8.30;99.90
4487;DHT22;2256;48.740;9.106;2024-02-26T08:43:15;8.30;99.90
4487;DHT22;2256;48.740;9.106;2024-02-26T08:45:41;8.30;99.90
4487;DHT22;2256;48.740;9.106;2024-02-26T08:48:08;8.40;99.90
4487;DHT22;2256;48.740;9.106;2024-02-26T08:50:35;8.50;99.90
4487;DHT22;2256;48.740;9.106;2024-02-26T08:53:02;8.50;99.90
4487;DHT22;2256;48.740;9.106;2024-02-26T08:55:29;8.50;99.90
4487;DHT22;2256;48.740;9.106;2024-02-26T08:57:57;8.40;99.90
4487;DHT22;2256;48.740;9.106;2024-02-26T09:00:24;8.40;99.90
4487;DHT22;2256;48.740;9.106;2024-02-26T09:02:51;8.40;99.90
4487;DHT22;2256;48.740;9.106;2024-02-26T09:05:17;8.30;99.90
4487;DHT22;2256;48.740;9.106;2024-02-26T09:07:44;8.50;99.90
4487;DHT22;2256;48.740;9.106;2024-02-26T09:10:12;8.70;99.90
4487;DHT22;2256;48.740;9.106;2024-02-26T09:12:38;9.10;99.90
4487;DHT22;2256;48.740;9.106;2024-02-26T09:15:07;9.10;99.90
4487;DHT22;2256;48.740;9.106;2024-02-26T09:17:34;9.20;99.90
4487;DHT22;2256;48.740;9.106;2024-02-26T09:20:02;9.30;99.90
4487;DHT22;2256;48.740;9.106;2024-02-26T09:22:29;9.50;99.90
4487;DHT22;2256;48.740;9.106;2024-02-26T09:24:58;9.60;99.90
4487;DHT22;2256;48.740;9.106;2024-02-26T09:27:25;9.80;99.90
4487;DHT22;2256;48.740;9.106;2024-02-26T09:29:52;10.00;99.90
4487;DHT22;2256;48.740;9.106;2024-02-26T09:32:20;10.10;99.90
4487;DHT22;2256;48.740;9.106;2024-02-26T09:34:47;10.10;99.90
4487;DHT22;2256;48.740;9.106;2024-02-26T09:37:14;10.20;99.90
4487;DHT22;2256;48.740;9.106;2024-02-26T09:39:41;10.20;99.90
4487;DHT22;2256;48.740;9.106;2024-02-26T09:42:09;10.20;99.90
4487;DHT22;2256;48.740;9.106;2024-02-26T09:44:36;10.20;99.90
4487;DHT22;2256;48.740;9.106;2024-02-26T09:47:05;10.20;99.90
4487;DHT22;2256;48.740;9.106;2024-02-26T09:49:36;10.40;99.90
4487;DHT22;2256;48.740;9.106;2024-02-26T09:52:04;10.50;99.90
4487;DHT22;2256;48.740;9.106;2024-02-26T09:54:31;10.60;99.90
4487;DHT22;2256;48.740;9.106;2024-02-26T09:57:00;10.90;99.70
4487;DHT22;2256;48.740;9.106;2024-02-26T09:59:30;11.50;99.90
4487;DHT22;2256;48.740;9.106;2024-02-26T10:02:00;11.90;98.60
4487;DHT22;2256;48.740;9.106;2024-02-26T10:04:27;12.10;98.40
4487;DHT22;2256;48.740;9.106;2024-02-26T10:06:55;12.10;98.20
4487;DHT22;2256;48.740;9.106;2024-02-26T10:09:25;12.20;98.30
4487;DHT22;2256;48.740;9.106;2024-02-26T10:11:53;12.00;98.30
4487;DHT22;2256;48.740;9.106;2024-02-26T10:14:21;12.00;98.30
4487;DHT22;2256;48.740;9.106;2024-02-26T10:16:50;12.20;98.10
4487;DHT22;2256;48.740;9.106;2024-02-26T10:19:25;12.40;98.20
4487;DHT22;2256;48.740;9.106;2024-02-26T10:21:56;12.40;97.70
4487;DHT22;2256;48.740;9.106;2024-02-26T10:24:23;12.50;97.70
4487;DHT22;2256;48.740;9.106;2024-02-26T10:26:51;12.60;97.50
4487;DHT22;2256;48.740;9.106;2024-02-26T10:29:18;12.50;97.70
4487;DHT22;2256;48.740;9.106;2024-02-26T10:31:45;12.30;98.00
4487;DHT22;2256;48.740;9.106;2024-02-26T10:34:12;11.90;98.20
4487;DHT22;2256;48.740;9.106;2024-02-26T10:36:41;11.70;98.60
4487;DHT22;2256;48.740;9.106;2024-02-26T10:39:12;11.80;98.90
4487;DHT22;2256;48.740;9.106;2024-02-26T10:41:41;11.90;98.30
4487;DHT22;2256;48.740;9.106;2024-02-26T10:44:09;11.80;98.50
4487;DHT22;2256;48.740;9.106;2024-02-26T10:46:37;11.70;98.40
4487;DHT22;2256;48.740;9.106;2024-02-26T10:49:04;11.50;97.40
4487;DHT22;2256;48.740;9.106;2024-02-26T10:51:32;11.50;97.50
4487;DHT22;2256;48.740;9.106;2024-02-26T10:54:02;11.70;97.40
4487;DHT22;2256;48.740;9.106;2024-02-26T10:56:34;11.90;97.80
4487;DHT22;2256;48.740;9.106;2024-02-26T10:59:04;12.00;97.80
4487;DHT22;2256;48.740;9.106;2024-02-26T11:01:35;12.00;97.50
4487;DHT22;2256;48.740;9.106;2024-02-26T11:04:04;12.00;97.30
4487;DHT22;2256;48.740;9.106;2024-02-26T11:06:31;11.90;97.50
4487;DHT22;2256;48.740;9.106;2024-02-26T11:09:00;12.00;97.70
4487;DHT22;2256;48.740;9.106;2024-02-26T11:11:27;12.20;97.60
4487;DHT22;2256;48.740;9.106;2024-02-26T11:13:57;12.50;96.80
4487;DHT22;2256;48.740;9.106;2024-02-26T11:16:26;12.60;97.10
4487;DHT22;2256;48.740;9.106;2024-02-26T11:18:55;12.70;96.90
4487;DHT22;2256;48.740;9.106;2024-02-26T11:21:22;12.60;96.80
4487;DHT22;2256;48.740;9.106;2024-02-26T11:23:53;12.60;96.90
4487;DHT22;2256;48.740;9.106;2024-02-26T11:26:20;12.40;97.30
4487;DHT22;2256;48.740;9.106;2024-02-26T11:28:48;12.50;97.20
4487;DHT22;2256;48.740;9.106;2024-02-26T11:31:17;12.40;97.50
4487;DHT22;2256;48.740;9.106;2024-02-26T11:33:51;12.30;97.60
4487;DHT22;2256;48.740;9.106;2024-02-26T11:36:19;12.10;98.20
4487;DHT22;2256;48.740;9.106;2024-02-26T11:38:46;12.00;98.00
4487;DHT22;2256;48.740;9.106;2024-02-26T11:41:17;12.10;98.30
4487;DHT22;2256;48.740;9.106;2024-02-26T11:43:50;12.30;97.70
4487;DHT22;2256;48.740;9.106;2024-02-26T11:46:30;12.20;97.20
4487;DHT22;2256;48.740;9.106;2024-02-26T11:48:59;12.20;96.70
4487;DHT22;2256;48.740;9.106;2024-02-26T11:51:26;12.40;96.90
4487;DHT22;2256;48.740;9.106;2024-02-26T11:53:54;12.60;96.90
4487;DHT22;2256;48.740;9.106;2024-02-26T11:56:23;12.70;96.60
4487;DHT22;2256;48.740;9.106;2024-02-26T11:58:57;12.70;96.30
4487;DHT22;2256;48.740;9.106;2024-02-26T12:01:42;12.70;96.60
4487;DHT22;2256;48.740;9.106;2024-02-26T12:04:14;12.70;96.20
4487;DHT22;2256;48.740;9.106;2024-02-26T12:06:43;12.90;96.70
4487;DHT22;2256;48.740;9.106;2024-02-26T12:09:11;12.80;95.30
4487;DHT22;2256;48.740;9.106;2024-02-26T12:11:39;12.50;95.90
4487;DHT22;2256;48.740;9.106;2024-02-26T12:14:07;12.40;96.20
4487;DHT22;2256;48.740;9.106;2024-02-26T12:16:38;12.40;96.60
4487;DHT22;2256;48.740;9.106;2024-02-26T12:19:07;12.50;96.40
4487;DHT22;2256;48.740;9.106;2024-02-26T12:21:35;12.60;95.90
4487;DHT22;2256;48.740;9.106;2024-02-26T12:24:14;12.70;95.30
4487;DHT22;2256;48.740;9.106;2024-02-26T12:26:41;12.50;95.70
4487;DHT22;2256;48.740;9.106;2024-02-26T12:29:08;12.50;95.20
4487;DHT22;2256;48.740;9.106;2024-02-26T12:31:36;12.70;95.20
4487;DHT22;2256;48.740;9.106;2024-02-26T12:34:06;12.70;95.20
4487;DHT22;2256;48.740;9.106;2024-02-26T12:36:35;12.70;96.30
4487;DHT22;2256;48.740;9.106;2024-02-26T12:39:02;12.80;95.60
4487;DHT22;2256;48.740;9.106;2024-02-26T12:41:31;12.90;95.50
4487;DHT22;2256;48.740;9.106;2024-02-26T12:43:58;13.10;95.10
4487;DHT22;2256;48.740;9.106;2024-02-26T12:46:25;13.30;94.80
4487;DHT22;2256;48.740;9.106;2024-02-26T12:48:54;13.40;94.80
4487;DHT22;2256;48.740;9.106;2024-02-26T12:51:25;13.60;94.40
4487;DHT22;2256;48.740;9.106;2024-02-26T12:53:52;13.70;94.60
4487;DHT22;2256;48.740;9.106;2024-02-26T12:56:19;13.60;94.80
4487;DHT22;2256;48.740;9.106;2024-02-26T12:58:48;13.50;95.00
4487;DHT22;2256;48.740;9.106;2024-02-26T13:01:17;13.70;94.60
4487;DHT22;2256;48.740;9.106;2024-02-26T13:03:44;13.40;94.60
4487;DHT22;2256;48.740;9.106;2024-02-26T13:06:12;13.40;94.40
4487;DHT22;2256;48.740;9.106;2024-02-26T13:08:41;13.30;94.70
4487;DHT22;2256;48.740;9.106;2024-02-26T13:11:08;13.40;95.30
4487;DHT22;2256;48.740;9.106;2024-02-26T13:13:35;13.50;95.20
4487;DHT22;2256;48.740;9.106;2024-02-26T13:16:03;13.70;95.20
4487;DHT22;2256;48.740;9.106;2024-02-26T13:18:30;13.70;95.30
4487;DHT22;2256;48.740;9.106;2024-02-26T13:21:07;13.90;95.10
4487;DHT22;2256;48.740;9.106;2024-02-26T13:23:34;14.00;95.30
4487;DHT22;2256;48.740;9.106;2024-02-26T13:26:03;13.80;94.40
4487;DHT22;2256;48.740;9.106;2024-02-26T13:28:29;13.90;94.90
4487;DHT22;2256;48.740;9.106;2024-02-26T13:30:57;14.10;95.30
4487;DHT22;2256;48.740;9.106;2024-02-26T13:33:26;14.10;95.30
4487;DHT22;2256;48.740;9.106;2024-02-26T13:35:54;14.00;95.20
4487;DHT22;2256;48.740;9.106;2024-02-26T13:38:22;14.10;95.30
4487;DHT22;2256;48.740;9.106;2024-02-26T13:40:50;13.90;95.90
4487;DHT22;2256;48.740;9.106;2024-02-26T13:43:18;13.90;96.20
4487;DHT22;2256;48.740;9.106;2024-02-26T13:45:46;14.00;96.60
4487;DHT22;2256;48.740;9.106;2024-02-26T13:48:14;13.90;95.80
4487;DHT22;2256;48.740;9.106;2024-02-26T13:50:41;13.80;95.80
4487;DHT22;2256;48.740;9.106;2024-02-26T13:53:08;13.70;95.60
4487;DHT22;2256;48.740;9.106;2024-02-26T13:55:35;13.70;96.10
4487;DHT22;2256;48.740;9.106;2024-02-26T13:58:02;13.80;96.20
4487;DHT22;2256;48.740;9.106;2024-02-26T14:00:30;13.70;96.20
4487;DHT22;2256;48.740;9.106;2024-02-26T14:02:59;13.70;96.40
4487;DHT22;2256;48.740;9.106;2024-02-26T14:05:26;13.70;96.70
4487;DHT22;2256;48.740;9.106;2024-02-26T14:07:52;13.80;96.10
4487;DHT22;2256;48.740;9.106;2024-02-26T14:10:20;13.80;96.40
4487;DHT22;2256;48.740;9.106;2024-02-26T14:12:47;13.70;96.50
4487;DHT22;2256;48.740;9.106;2024-02-26T14:15:13;13.70;96.20
4487;DHT22;2256;48.740;9.106;2024-02-26T14:17:41;13.70;96.10
4487;DHT22;2256;48.740;9.106;2024-02-26T14:20:09;13.60;96.30
4487;DHT22;2256;48.740;9.106;2024-02-26T14:22:36;13.50;96.30
4487;DHT22;2256;48.740;9.106;2024-02-26T14:25:03;13.50;96.40
4487;DHT22;2256;48.740;9.106;2024-02-26T14:27:30;13.60;96.60
4487;DHT22;2256;48.740;9.106;2024-02-26T14:29:57;13.50;96.20
4487;DHT22;2256;48.740;9.106;2024-02-26T14:32:24;13.40;96.10
4487;DHT22;2256;48.740;9.106;2024-02-26T14:34:52;13.40;96.40
4487;DHT22;2256;48.740;9.106;2024-02-26T14:37:19;13.30;96.10
4487;DHT22;2256;48.740;9.106;2024-02-26T14:39:45;13.30;96.20
4487;DHT22;2256;48.740;9.106;2024-02-26T14:42:14;13.20;96.40
4487;DHT22;2256;48.740;9.106;2024-02-26T14:44:43;13.30;96.40
4487;DHT22;2256;48.740;9.106;2024-02-26T14:47:09;13.20;96.30
4487;DHT22;2256;48.740;9.106;2024-02-26T14:49:36;13.10;96.00
4487;DHT22;2256;48.740;9.106;2024-02-26T14:52:05;13.00;96.20
4487;DHT22;2256;48.740;9.106;2024-02-26T14:54:32;12.90;96.50
4487;DHT22;2256;48.740;9.106;2024-02-26T14:57:03;12.70;96.20
4487;DHT22;2256;48.740;9.106;2024-02-26T14:59:30;12.80;96.00
4487;DHT22;2256;48.740;9.106;2024-02-26T15:01:57;12.60;95.60
4487;DHT22;2256;48.740;9.106;2024-02-26T15:04:25;12.60;95.70
4487;DHT22;2256;48.740;9.106;2024-02-26T15:06:52;12.60;95.80
4487;DHT22;2256;48.740;9.106;2024-02-26T15:09:20;12.70;95.70
4487;DHT22;2256;48.740;9.106;2024-02-26T15:11:47;12.70;95.40
4487;DHT22;2256;48.740;9.106;2024-02-26T15:14:14;12.70;95.70
4487;DHT22;2256;48.740;9.106;2024-02-26T15:16:40;12.70;95.50
4487;DHT22;2256;48.740;9.106;2024-02-26T15:19:07;12.70;95.90
4487;DHT22;2256;48.740;9.106;2024-02-26T15:21:34;12.70;96.00
4487;DHT22;2256;48.740;9.106;2024-02-26T15:24:01;12.60;95.60
4487;DHT22;2256;48.740;9.106;2024-02-26T15:26:29;12.60;95.80
4487;DHT22;2256;48.740;9.106;2024-02-26T15:28:56;12.70;95.80
4487;DHT22;2256;48.740;9.106;2024-02-26T15:31:23;12.60;95.60
4487;DHT22;2256;48.740;9.106;2024-02-26T15:33:49;12.50;95.50
4487;DHT22;2256;48.740;9.106;2024-02-26T15:36:16;12.50;95.70
4487;DHT22;2256;48.740;9.106;2024-02-26T15:38:43;12.40;95.70
4487;DHT22;2256;48.740;9.106;2024-02-26T15:41:13;12.40;96.00
4487;DHT22;2256;48.740;9.106;2024-02-26T15:43:41;12.30;96.20
4487;DHT22;2256;48.740;9.106;2024-02-26T15:46:08;12.30;96.50
4487;DHT22;2256;48.740;9.106;2024-02-26T15:48:37;12.30;96.30
4487;DHT22;2256;48.740;9.106;2024-02-26T15:51:04;12.20;96.20
4487;DHT22;2256;48.740;9.106;2024-02-26T15:53:31;12.10;96.30
4487;DHT22;2256;48.740;9.106;2024-02-26T15:55:57;12.10;96.40
4487;DHT22;2256;48.740;9.106;2024-02-26T15:58:24;12.00;96.50
4487;DHT22;2256;48.740;9.106;2024-02-26T16:00:53;12.00;96.50
4487;DHT22;2256;48.740;9.106;2024-02-26T16:03:19;12.00;96.60
4487;DHT22;2256;48.740;9.106;2024-02-26T16:05:46;12.00;96.40
4487;DHT22;2256;48.740;9.106;2024-02-26T16:08:16;12.00;96.60
4487;DHT22;2256;48.740;9.106;2024-02-26T16:10:46;12.00;96.40
4487;DHT22;2256;48.740;9.106;2024-02-26T16:13:12;12.00;96.60